sensor_id;sensor_type;location;lat;lon;timestamp;temperature;humidity
14873;DHT22;7528;48.576;19.122;2023-04-09T00:02:50;8.70;70.60
14873;DHT22;7528;48.576;19.122;2023-04-09T00:07:55;8.70;70.60
14873;DHT22;7528;48.576;19.122;2023-04-09T00:12:57;8.70;70.60
14873;DHT22;7528;48.576;19.122;2023-04-09T00:18:00;8.70;70.80
14873;DHT22;7528;48.576;19.122;2023-04-09T00:23:04;8.60;71.30
14873;DHT22;7528;48.576;19.122;2023-04-09T00:28:06;8.60;71.60
14873;DHT22;7528;48.576;19.122;2023-04-09T00:33:09;8.60;71.40
14873;DHT22;7528;48.576;19.122;2023-04-09T00:38:13;8.60;71.50
14873;DHT22;7528;48.576;19.122;2023-04-09T00:43:15;8.60;71.60
14873;DHT22;7528;48.576;19.122;2023-04-09T00:48:18;8.60;71.90
14873;DHT22;7528;48.576;19.122;2023-04-09T00:53:22;8.50;72.20
14873;DHT22;7528;48.576;19.122;2023-04-09T00:58:24;8.50;72.50
14873;DHT22;7528;48.576;19.122;2023-04-09T01:03:27;8.50;72.60
14873;DHT22;7528;48.576;19.122;2023-04-09T01:08:39;8.40;73.30
14873;DHT22;7528;48.576;19.122;2023-04-09T01:13:49;8.40;73.80
14873;DHT22;7528;48.576;19.122;2023-04-09T01:18:58;8.40;73.50
14873;DHT22;7528;48.576;19.122;2023-04-09T01:24:25;8.40;73.20
14873;DHT22;7528;48.576;19.122;2023-04-09T01:29:34;8.40;73.00
14873;DHT22;7528;48.576;19.122;2023-04-09T01:34:37;8.40;73.50
14873;DHT22;7528;48.576;19.122;2023-04-09T01:39:40;8.30;73.70
14873;DHT22;7528;48.576;19.122;2023-04-09T01:44:45;8.30;73.70
14873;DHT22;7528;48.576;19.122;2023-04-09T01:49:48;8.20;73.80
14873;DHT22;7528;48.576;19.122;2023-04-09T01:54:51;8.20;73.60
14873;DHT22;7528;48.576;19.122;2023-04-09T01:59:55;8.20;73.00
14873;DHT22;7528;48.576;19.122;2023-04-09T02:04:59;8.20;72.90
14873;DHT22;7528;48.576;19.122;2023-04-09T02:10:06;8.20;72.90
14873;DHT22;7528;48.576;19.122;2023-04-09T02:15:11;8.10;72.70
14873;DHT22;7528;48.576;19.122;2023-04-09T02:20:16;8.20;72.80
14873;DHT22;7528;48.576;19.122;2023-04-09T02:25:19;8.10;72.90
14873;DHT22;7528;48.576;19.122;2023-04-09T02:30:23;8.10;73.20
14873;DHT22;7528;48.576;19.122;2023-04-09T02:35:25;8.10;73.40
14873;DHT22;7528;48.576;19.122;2023-04-09T02:40:28;8.10;73.70
14873;DHT22;7528;48.576;19.122;2023-04-09T02:45:32;8.10;73.60
14873;DHT22;7528;48.576;19.122;2023-04-09T02:50:35;8.10;73.90
14873;DHT22;7528;48.576;19.122;2023-04-09T02:55:37;8.10;74.00
14873;DHT22;7528;48.576;19.122;2023-04-09T03:00:41;8.10;74.20
14873;DHT22;7528;48.576;19.122;2023-04-09T03:05:44;8.00;74.70
14873;DHT22;7528;48.576;19.122;2023-04-09T03:10:47;8.00;74.90
14873;DHT22;7528;48.576;19.122;2023-04-09T03:15:52;8.00;75.50
14873;DHT22;7528;48.576;19.122;2023-04-09T03:20:54;8.00;75.90
14873;DHT22;7528;48.576;19.122;2023-04-09T03:26:01;7.90;75.90
14873;DHT22;7528;48.576;19.122;2023-04-09T03:31:10;8.00;75.80
14873;DHT22;7528;48.576;19.122;2023-04-09T03:36:15;7.90;75.40
14873;DHT22;7528;48.576;19.122;2023-04-09T03:41:37;7.90;75.20
14873;DHT22;7528;48.576;19.122;2023-04-09T03:46:45;7.90;75.40
14873;DHT22;7528;48.576;19.122;2023-04-09T03:51:51;7.90;75.30
14873;DHT22;7528;48.576;19.122;2023-04-09T03:56:54;8.00;75.30
14873;DHT22;7528;48.576;19.122;2023-04-09T04:02:00;8.00;75.80
14873;DHT22;7528;48.576;19.122;2023-04-09T04:07:04;8.00;75.40
14873;DHT22;7528;48.576;19.122;2023-04-09T04:12:11;7.90;76.00
14873;DHT22;7528;48.576;19.122;2023-04-09T04:17:47;7.90;76.60
14873;DHT22;7528;48.576;19.122;2023-04-09T04:23:02;7.90;76.70
14873;DHT22;7528;48.576;19.122;2023-04-09T04:28:06;7.90;76.60
14873;DHT22;7528;48.576;19.122;2023-04-09T04:33:15;8.00;76.40
14873;DHT22;7528;48.576;19.122;2023-04-09T04:38:24;8.00;76.20
14873;DHT22;7528;48.576;19.122;2023-04-09T04:43:28;8.00;76.10
14873;DHT22;7528;48.576;19.122;2023-04-09T04:48:34;8.00;76.30
14873;DHT22;7528;48.576;19.122;2023-04-09T04:53:37;8.00;76.60
14873;DHT22;7528;48.576;19.122;2023-04-09T04:58:44;8.00;77.20
14873;DHT22;7528;48.576;19.122;2023-04-09T05:03:50;8.00;76.70
14873;DHT22;7528;48.576;19.122;2023-04-09T05:09:03;7.90;77.20
14873;DHT22;7528;48.576;19.122;2023-04-09T05:14:14;8.00;77.20
14873;DHT22;7528;48.576;19.122;2023-04-09T05:19:18;8.00;77.70
14873;DHT22;7528;48.576;19.122;2023-04-09T05:24:21;8.00;76.90
14873;DHT22;7528;48.576;19.122;2023-04-09T05:29:24;8.10;76.50
14873;DHT22;7528;48.576;19.122;2023-04-09T05:34:28;8.20;76.60
14873;DHT22;7528;48.576;19.122;2023-04-09T05:39:31;8.20;76.40
14873;DHT22;7528;48.576;19.122;2023-04-09T05:44:35;8.20;76.50
14873;DHT22;7528;48.576;19.122;2023-04-09T05:49:48;8.20;76.50
14873;DHT22;7528;48.576;19.122;2023-04-09T05:54:52;8.30;76.40
14873;DHT22;7528;48.576;19.122;2023-04-09T06:00:00;8.30;76.40
14873;DHT22;7528;48.576;19.122;2023-04-09T06:05:05;8.30;75.30
14873;DHT22;7528;48.576;19.122;2023-04-09T06:10:08;8.40;76.10
14873;DHT22;7528;48.576;19.122;2023-04-09T06:15:11;8.40;76.40
14873;DHT22;7528;48.576;19.122;2023-04-09T06:20:15;8.40;77.10
14873;DHT22;7528;48.576;19.122;2023-04-09T06:25:17;8.60;77.70
14873;DHT22;7528;48.576;19.122;2023-04-09T06:30:20;8.70;76.00
14873;DHT22;7528;48.576;19.122;2023-04-09T06:35:24;8.80;76.30
14873;DHT22;7528;48.576;19.122;2023-04-09T06:40:27;8.90;75.20
14873;DHT22;7528;48.576;19.122;2023-04-09T06:45:29;9.00;75.00
14873;DHT22;7528;48.576;19.122;2023-04-09T06:50:34;9.00;75.20
14873;DHT22;7528;48.576;19.122;2023-04-09T06:55:36;9.10;74.80
14873;DHT22;7528;48.576;19.122;2023-04-09T07:00:39;9.20;74.90
14873;DHT22;7528;48.576;19.122;2023-04-09T07:05:43;9.20;74.60
14873;DHT22;7528;48.576;19.122;2023-04-09T07:10:45;9.40;74.50
14873;DHT22;7528;48.576;19.122;2023-04-09T07:15:48;9.50;73.90
14873;DHT22;7528;48.576;19.122;2023-04-09T07:20:52;9.60;73.20
14873;DHT22;7528;48.576;19.122;2023-04-09T07:25:55;9.80;71.60
14873;DHT22;7528;48.576;19.122;2023-04-09T07:30:58;10.00;72.30
14873;DHT22;7528;48.576;19.122;2023-04-09T07:36:03;10.10;71.40
14873;DHT22;7528;48.576;19.122;2023-04-09T07:41:06;10.20;70.80
14873;DHT22;7528;48.576;19.122;2023-04-09T07:46:17;10.20;70.40
14873;DHT22;7528;48.576;19.122;2023-04-09T07:51:21;10.50;69.20
14873;DHT22;7528;48.576;19.122;2023-04-09T07:56:24;10.60;67.40
14873;DHT22;7528;48.576;19.122;2023-04-09T08:01:26;10.80;66.80
14873;DHT22;7528;48.576;19.122;2023-04-09T08:06:30;10.90;66.80
14873;DHT22;7528;48.576;19.122;2023-04-09T08:11:32;11.00;66.50
14873;DHT22;7528;48.576;19.122;2023-04-09T08:16:35;11.10;65.90
14873;DHT22;7528;48.576;19.122;2023-04-09T08:21:39;11.30;66.90
14873;DHT22;7528;48.576;19.122;2023-04-09T08:26:43;11.40;66.50
14873;DHT22;7528;48.576;19.122;2023-04-09T08:31:45;11.50;65.90
14873;DHT22;7528;48.576;19.122;2023-04-09T08:36:49;11.60;64.30
14873;DHT22;7528;48.576;19.122;2023-04-09T08:41:52;11.70;64.80
14873;DHT22;7528;48.576;19.122;2023-04-09T08:46:54;11.70;65.20
14873;DHT22;7528;48.576;19.122;2023-04-09T08:51:58;11.70;63.00
14873;DHT22;7528;48.576;19.122;2023-04-09T08:57:04;11.80;62.40
14873;DHT22;7528;48.576;19.122;2023-04-09T09:02:08;11.90;62.60
14873;DHT22;7528;48.576;19.122;2023-04-09T09:07:12;11.80;61.60
14873;DHT22;7528;48.576;19.122;2023-04-09T09:12:34;11.90;59.30
14873;DHT22;7528;48.576;19.122;2023-04-09T09:17:52;12.00;58.30
14873;DHT22;7528;48.576;19.122;2023-04-09T09:22:57;12.20;57.90
14873;DHT22;7528;48.576;19.122;2023-04-09T09:28:06;12.40;57.20
14873;DHT22;7528;48.576;19.122;2023-04-09T09:33:09;12.60;57.50
14873;DHT22;7528;48.576;19.122;2023-04-09T09:38:13;12.80;56.20
14873;DHT22;7528;48.576;19.122;2023-04-09T09:43:17;12.90;55.00
14873;DHT22;7528;48.576;19.122;2023-04-09T09:48:19;12.90;54.90
14873;DHT22;7528;48.576;19.122;2023-04-09T09:53:24;13.10;55.50
14873;DHT22;7528;48.576;19.122;2023-04-09T09:58:31;13.50;56.10
14873;DHT22;7528;48.576;19.122;2023-04-09T10:03:38;14.00;54.00
14873;DHT22;7528;48.576;19.122;2023-04-09T10:08:43;14.50;53.80
14873;DHT22;7528;48.576;19.122;2023-04-09T10:13:49;14.80;51.70
14873;DHT22;7528;48.576;19.122;2023-04-09T10:18:53;14.70;50.80
14873;DHT22;7528;48.576;19.122;2023-04-09T10:23:58;14.50;51.40
14873;DHT22;7528;48.576;19.122;2023-04-09T10:29:06;14.30;51.30
14873;DHT22;7528;48.576;19.122;2023-04-09T10:34:09;14.10;51.60
14873;DHT22;7528;48.576;19.122;2023-04-09T10:39:13;13.90;52.20
14873;DHT22;7528;48.576;19.122;2023-04-09T10:44:23;13.70;53.10
14873;DHT22;7528;48.576;19.122;2023-04-09T10:49:26;13.70;52.60
14873;DHT22;7528;48.576;19.122;2023-04-09T10:54:48;13.50;52.80
14873;DHT22;7528;48.576;19.122;2023-04-09T10:59:53;13.30;53.90
14873;DHT22;7528;48.576;19.122;2023-04-09T11:05:01;13.20;54.70
14873;DHT22;7528;48.576;19.122;2023-04-09T11:10:08;13.00;55.30
14873;DHT22;7528;48.576;19.122;2023-04-09T11:15:15;12.90;56.30
14873;DHT22;7528;48.576;19.122;2023-04-09T11:20:20;13.00;56.20
14873;DHT22;7528;48.576;19.122;2023-04-09T11:25:26;13.10;54.90
14873;DHT22;7528;48.576;19.122;2023-04-09T11:30:29;13.10;55.20
14873;DHT22;7528;48.576;19.122;2023-04-09T11:35:34;13.40;54.30
14873;DHT22;7528;48.576;19.122;2023-04-09T11:40:40;13.60;53.10
14873;DHT22;7528;48.576;19.122;2023-04-09T11:45:48;13.70;51.90
14873;DHT22;7528;48.576;19.122;2023-04-09T11:50:50;13.80;52.30
14873;DHT22;7528;48.576;19.122;2023-04-09T12:22:15;13.80;51.60
14873;DHT22;7528;48.576;19.122;2023-04-09T12:27:18;14.00;51.70
14873;DHT22;7528;48.576;19.122;2023-04-09T12:32:20;14.00;51.20
14873;DHT22;7528;48.576;19.122;2023-04-09T12:37:24;14.00;51.30
14873;DHT22;7528;48.576;19.122;2023-04-09T12:42:28;14.10;50.00
14873;DHT22;7528;48.576;19.122;2023-04-09T12:47:31;14.00;49.60
14873;DHT22;7528;48.576;19.122;2023-04-09T12:52:34;14.00;49.80
14873;DHT22;7528;48.576;19.122;2023-04-09T12:57:37;13.90;49.90
14873;DHT22;7528;48.576;19.122;2023-04-09T13:02:41;13.90;49.50
14873;DHT22;7528;48.576;19.122;2023-04-09T13:07:44;14.00;50.40
14873;DHT22;7528;48.576;19.122;2023-04-09T13:12:47;14.10;50.40
14873;DHT22;7528;48.576;19.122;2023-04-09T13:17:49;14.00;49.80
14873;DHT22;7528;48.576;19.122;2023-04-09T13:22:53;14.00;49.60
14873;DHT22;7528;48.576;19.122;2023-04-09T13:27:56;14.10;48.80
14873;DHT22;7528;48.576;19.122;2023-04-09T13:32:58;14.10;48.30
14873;DHT22;7528;48.576;19.122;2023-04-09T13:38:02;14.20;49.40
14873;DHT22;7528;48.576;19.122;2023-04-09T13:43:04;14.20;48.20
14873;DHT22;7528;48.576;19.122;2023-04-09T13:48:06;14.10;47.90
14873;DHT22;7528;48.576;19.122;2023-04-09T13:53:10;14.20;48.30
14873;DHT22;7528;48.576;19.122;2023-04-09T13:58:13;14.30;48.90
14873;DHT22;7528;48.576;19.122;2023-04-09T14:03:15;14.20;48.00
14873;DHT22;7528;48.576;19.122;2023-04-09T14:08:19;14.20;48.10
14873;DHT22;7528;48.576;19.122;2023-04-09T14:13:22;14.10;47.50
14873;DHT22;7528;48.576;19.122;2023-04-09T14:18:24;14.10;48.50
14873;DHT22;7528;48.576;19.122;2023-04-09T14:23:28;14.10;48.30
14873;DHT22;7528;48.576;19.122;2023-04-09T14:28:30;14.00;47.80
14873;DHT22;7528;48.576;19.122;2023-04-09T14:33:33;14.00;47.70
14873;DHT22;7528;48.576;19.122;2023-04-09T14:38:37;14.00;47.70
14873;DHT22;7528;48.576;19.122;2023-04-09T14:43:39;13.90;48.30
14873;DHT22;7528;48.576;19.122;2023-04-09T14:48:41;13.90;47.70
14873;DHT22;7528;48.576;19.122;2023-04-09T14:53:45;14.00;48.50
14873;DHT22;7528;48.576;19.122;2023-04-09T14:58:48;14.00;48.50
14873;DHT22;7528;48.576;19.122;2023-04-09T15:03:50;13.90;48.80
14873;DHT22;7528;48.576;19.122;2023-04-09T15:08:54;13.90;48.50
14873;DHT22;7528;48.576;19.122;2023-04-09T15:13:56;13.90;48.50
14873;DHT22;7528;48.576;19.122;2023-04-09T15:18:59;14.00;48.10
14873;DHT22;7528;48.576;19.122;2023-04-09T15:24:04;14.00;47.70
14873;DHT22;7528;48.576;19.122;2023-04-09T15:29:07;14.10;47.80
14873;DHT22;7528;48.576;19.122;2023-04-09T15:34:09;14.10;47.30
14873;DHT22;7528;48.576;19.122;2023-04-09T15:39:13;14.00;48.00
14873;DHT22;7528;48.576;19.122;2023-04-09T15:44:16;14.00;46.90
14873;DHT22;7528;48.576;19.122;2023-04-09T15:49:18;14.00;47.00
14873;DHT22;7528;48.576;19.122;2023-04-09T15:54:22;13.90;47.60
14873;DHT22;7528;48.576;19.122;2023-04-09T15:59:25;13.90;47.50
14873;DHT22;7528;48.576;19.122;2023-04-09T16:04:27;13.80;47.00
14873;DHT22;7528;48.576;19.122;2023-04-09T16:09:31;13.80;47.40
14873;DHT22;7528;48.576;19.122;2023-04-09T16:14:34;13.70;47.60
14873;DHT22;7528;48.576;19.122;2023-04-09T16:19:36;13.70;47.50
14873;DHT22;7528;48.576;19.122;2023-04-09T16:24:41;13.70;47.60
14873;DHT22;7528;48.576;19.122;2023-04-09T16:29:44;13.70;49.60
14873;DHT22;7528;48.576;19.122;2023-04-09T16:34:46;13.70;50.60
14873;DHT22;7528;48.576;19.122;2023-04-09T16:39:50;13.60;52.00
14873;DHT22;7528;48.576;19.122;2023-04-09T16:44:52;13.50;52.60
14873;DHT22;7528;48.576;19.122;2023-04-09T16:49:55;13.50;52.10
14873;DHT22;7528;48.576;19.122;2023-04-09T16:54:59;13.50;53.30
14873;DHT22;7528;48.576;19.122;2023-04-09T17:00:01;13.40;53.50
14873;DHT22;7528;48.576;19.122;2023-04-09T17:05:05;13.40;53.50
14873;DHT22;7528;48.576;19.122;2023-04-09T17:10:10;13.30;53.30
14873;DHT22;7528;48.576;19.122;2023-04-09T17:15:13;13.20;53.00
14873;DHT22;7528;48.576;19.122;2023-04-09T17:20:16;13.10;53.20
14873;DHT22;7528;48.576;19.122;2023-04-09T17:25:19;13.00;54.30
14873;DHT22;7528;48.576;19.122;2023-04-09T17:30:22;13.00;53.20
14873;DHT22;7528;48.576;19.122;2023-04-09T17:35:25;12.80;54.70
14873;DHT22;7528;48.576;19.122;2023-04-09T17:40:28;12.80;54.70
14873;DHT22;7528;48.576;19.122;2023-04-09T17:45:32;12.70;55.10
14873;DHT22;7528;48.576;19.122;2023-04-09T17:50:36;12.60;55.90
14873;DHT22;7528;48.576;19.122;2023-04-09T17:55:46;12.60;55.60
14873;DHT22;7528;48.576;19.122;2023-04-09T18:00:50;12.50;55.90
14873;DHT22;7528;48.576;19.122;2023-04-09T18:05:53;12.50;55.80
14873;DHT22;7528;48.576;19.122;2023-04-09T18:10:57;12.50;57.10
14873;DHT22;7528;48.576;19.122;2023-04-09T18:16:03;12.40;56.90
14873;DHT22;7528;48.576;19.122;2023-04-09T18:21:09;12.40;56.60
14873;DHT22;7528;48.576;19.122;2023-04-09T18:26:13;12.30;57.20
14873;DHT22;7528;48.576;19.122;2023-04-09T18:31:16;12.10;58.00
14873;DHT22;7528;48.576;19.122;2023-04-09T18:36:18;12.20;58.50
14873;DHT22;7528;48.576;19.122;2023-04-09T18:41:23;12.10;57.50
14873;DHT22;7528;48.576;19.122;2023-04-09T18:46:25;12.00;58.00
14873;DHT22;7528;48.576;19.122;2023-04-09T18:51:28;12.00;57.90
14873;DHT22;7528;48.576;19.122;2023-04-09T18:56:34;11.90;58.80
14873;DHT22;7528;48.576;19.122;2023-04-09T19:01:37;11.90;59.00
14873;DHT22;7528;48.576;19.122;2023-04-09T19:06:39;11.80;59.10
14873;DHT22;7528;48.576;19.122;2023-04-09T19:11:43;11.70;59.30
14873;DHT22;7528;48.576;19.122;2023-04-09T19:16:46;11.70;59.30
14873;DHT22;7528;48.576;19.122;2023-04-09T19:21:48;11.60;59.70
14873;DHT22;7528;48.576;19.122;2023-04-09T19:26:53;11.50;60.20
14873;DHT22;7528;48.576;19.122;2023-04-09T19:31:56;11.50;60.50
14873;DHT22;7528;48.576;19.122;2023-04-09T19:36:58;11.50;60.10
14873;DHT22;7528;48.576;19.122;2023-04-09T19:42:02;11.50;60.10
14873;DHT22;7528;48.576;19.122;2023-04-09T19:47:05;11.50;60.40
14873;DHT22;7528;48.576;19.122;2023-04-09T19:52:07;11.40;61.20
14873;DHT22;7528;48.576;19.122;2023-04-09T19:57:11;11.30;60.40
14873;DHT22;7528;48.576;19.122;2023-04-09T20:02:15;11.20;60.50
14873;DHT22;7528;48.576;19.122;2023-04-09T20:07:17;11.20;60.90
14873;DHT22;7528;48.576;19.122;2023-04-09T20:12:21;11.10;61.10
14873;DHT22;7528;48.576;19.122;2023-04-09T20:17:29;11.10;61.50
14873;DHT22;7528;48.576;19.122;2023-04-09T20:22:31;11.00;62.00
14873;DHT22;7528;48.576;19.122;2023-04-09T20:27:35;11.00;61.30
14873;DHT22;7528;48.576;19.122;2023-04-09T20:32:39;10.90;61.70
14873;DHT22;7528;48.576;19.122;2023-04-09T20:37:42;10.80;61.50
14873;DHT22;7528;48.576;19.122;2023-04-09T20:42:46;10.80;61.10
14873;DHT22;7528;48.576;19.122;2023-04-09T20:47:49;10.80;61.60
14873;DHT22;7528;48.576;19.122;2023-04-09T20:52:51;10.70;62.90
14873;DHT22;7528;48.576;19.122;2023-04-09T20:57:56;10.70;61.70
14873;DHT22;7528;48.576;19.122;2023-04-09T21:03:02;10.60;61.90
14873;DHT22;7528;48.576;19.122;2023-04-09T21:08:04;10.60;62.40
14873;DHT22;7528;48.576;19.122;2023-04-09T21:13:09;10.60;62.80
14873;DHT22;7528;48.576;19.122;2023-04-09T21:18:11;10.50;62.50
14873;DHT22;7528;48.576;19.122;2023-04-09T21:23:14;10.40;62.80
14873;DHT22;7528;48.576;19.122;2023-04-09T21:28:19;10.30;63.00
14873;DHT22;7528;48.576;19.122;2023-04-09T21:33:21;10.30;63.30
14873;DHT22;7528;48.576;19.122;2023-04-09T21:38:24;10.30;63.30
14873;DHT22;7528;48.576;19.122;2023-04-09T21:43:28;10.30;62.90
14873;DHT22;7528;48.576;19.122;2023-04-09T21:48:31;10.30;63.20
14873;DHT22;7528;48.576;19.122;2023-04-09T21:53:33;10.20;63.50
14873;DHT22;7528;48.576;19.122;2023-04-09T21:58:37;10.20;63.90
14873;DHT22;7528;48.576;19.122;2023-04-09T22:03:40;10.10;63.90
14873;DHT22;7528;48.576;19.122;2023-04-09T22:08:44;10.00;63.80
14873;DHT22;7528;48.576;19.122;2023-04-09T22:13:48;10.00;63.80
14873;DHT22;7528;48.576;19.122;2023-04-09T22:18:52;9.90;64.00
14873;DHT22;7528;48.576;19.122;2023-04-09T22:23:55;9.90;63.90
14873;DHT22;7528;48.576;19.122;2023-04-09T22:28:58;9.80;64.00
14873;DHT22;7528;48.576;19.122;2023-04-09T22:34:01;9.70;64.10
14873;DHT22;7528;48.576;19.122;2023-04-09T22:39:04;9.50;64.10
14873;DHT22;7528;48.576;19.122;2023-04-09T22:44:08;9.40;64.30
14873;DHT22;7528;48.576;19.122;2023-04-09T22:49:11;9.30;64.30
14873;DHT22;7528;48.576;19.122;2023-04-09T22:54:14;9.30;64.30
14873;DHT22;7528;48.576;19.122;2023-04-09T22:59:18;9.10;64.30
14873;DHT22;7528;48.576;19.122;2023-04-09T23:04:21;9.00;64.60
14873;DHT22;7528;48.576;19.122;2023-04-09T23:09:25;8.90;64.50
14873;DHT22;7528;48.576;19.122;2023-04-09T23:14:29;8.80;64.50
14873;DHT22;7528;48.576;19.122;2023-04-09T23:19:32;8.70;64.80
14873;DHT22;7528;48.576;19.122;2023-04-09T23:24:34;8.60;64.80
14873;DHT22;7528;48.576;19.122;2023-04-09T23:29:39;8.60;64.90
14873;DHT22;7528;48.576;19.122;2023-04-09T23:34:41;8.40;65.20
14873;DHT22;7528;48.576;19.122;2023-04-09T23:39:45;8.40;65.30
14873;DHT22;7528;48.576;19.122;2023-04-09T23:44:49;8.30;65.30
14873;DHT22;7528;48.576;19.122;2023-04-09T23:49:52;8.10;65.50
14873;DHT22;7528;48.576;19.122;2023-04-09T23:54:54;8.10;66.10
14873;DHT22;7528;48.576;19.122;2023-04-09T23:59:58;8.00;66.30
